createdAt,value
2017-09-21T00:02:12.153Z,86.80
2017-09-21T00:04:40.127Z,87.00
2017-09-21T00:07:08.907Z,88.70
2017-09-21T00:09:36.892Z,88.60
2017-09-21T00:12:04.875Z,89.90
2017-09-21T00:14:32.912Z,90.20
2017-09-21T00:17:01.010Z,90.70
2017-09-21T00:19:28.973Z,90.30
2017-09-21T00:21:57.365Z,90.20
2017-09-21T00:24:27.607Z,89.60
2017-09-21T00:26:56.441Z,89.30
2017-09-21T00:29:24.317Z,89.30
2017-09-21T00:31:52.994Z,88.90
2017-09-21T00:34:22.000Z,88.50
2017-09-21T00:36:50.815Z,88.70
2017-09-21T00:39:19.514Z,89.00
2017-09-21T00:41:48.296Z,87.50
2017-09-21T00:44:17.041Z,87.60
2017-09-21T00:46:46.144Z,87.60
2017-09-21T00:49:14.333Z,87.10
2017-09-21T00:54:26.014Z,84.60
2017-09-21T00:56:54.186Z,84.50
2017-09-21T00:59:22.254Z,84.90
2017-09-21T01:01:50.237Z,84.50
2017-09-21T01:04:19.323Z,85.10
2017-09-21T01:06:47.287Z,85.10
2017-09-21T01:09:15.313Z,85.80
2017-09-21T01:11:44.593Z,86.20
2017-09-21T01:14:13.348Z,86.00
2017-09-21T01:16:41.232Z,86.00
2017-09-21T01:19:09.231Z,86.10
2017-09-21T01:21:38.073Z,86.30
2017-09-21T01:24:06.146Z,86.30
2017-09-21T01:26:34.110Z,86.70
2017-09-21T01:29:02.596Z,86.80
2017-09-21T01:31:36.202Z,86.40
2017-09-21T01:34:06.320Z,85.60
2017-09-21T01:36:39.306Z,83.80
2017-09-21T01:39:08.395Z,84.00
2017-09-21T01:41:36.361Z,84.20
2017-09-21T01:44:04.214Z,84.10
2017-09-21T01:46:32.196Z,84.20
2017-09-21T01:49:00.800Z,84.60
2017-09-21T01:51:29.054Z,83.90
2017-09-21T01:53:57.638Z,83.80
2017-09-21T01:56:26.135Z,83.20
2017-09-21T01:58:54.204Z,83.50
2017-09-21T02:01:22.271Z,84.30
2017-09-21T02:03:50.977Z,85.40
2017-09-21T02:06:19.965Z,86.10
2017-09-21T02:08:48.011Z,86.80
2017-09-21T02:11:16.615Z,86.70
2017-09-21T02:13:44.561Z,86.70
2017-09-21T02:16:12.637Z,86.60
2017-09-21T02:18:40.523Z,85.70
2017-09-21T02:21:08.607Z,85.10
2017-09-21T02:23:37.565Z,84.80
2017-09-21T02:26:05.660Z,84.80
2017-09-21T02:28:34.323Z,85.10
2017-09-21T02:31:02.339Z,85.70
2017-09-21T02:33:32.164Z,87.30
2017-09-21T02:36:00.380Z,87.30
2017-09-21T02:38:28.426Z,87.70
2017-09-21T02:40:56.341Z,88.40
2017-09-21T02:43:24.318Z,89.20
2017-09-21T02:45:53.828Z,89.80
2017-09-21T02:48:22.684Z,90.10
2017-09-21T02:50:50.553Z,90.10
2017-09-21T02:53:18.410Z,90.40
2017-09-21T02:55:46.303Z,90.30
2017-09-21T02:58:14.995Z,89.90
2017-09-21T03:00:43.237Z,89.90
2017-09-21T03:03:11.130Z,89.40
2017-09-21T03:05:39.003Z,89.10
2017-09-21T03:08:07.767Z,89.30
2017-09-21T03:10:35.725Z,88.50
2017-09-21T03:13:04.725Z,87.80
2017-09-21T03:15:32.923Z,87.60
2017-09-21T03:18:00.973Z,87.50
2017-09-21T03:20:28.958Z,87.40
2017-09-21T03:22:56.818Z,87.60
2017-09-21T03:25:24.701Z,87.90
2017-09-21T03:27:52.555Z,88.10
2017-09-21T03:30:20.604Z,88.70
2017-09-21T03:32:48.676Z,88.70
2017-09-21T03:35:16.605Z,88.60
2017-09-21T03:37:45.982Z,88.30
2017-09-21T03:40:13.840Z,87.70
2017-09-21T03:42:41.750Z,87.30
2017-09-21T03:45:10.328Z,86.30
2017-09-21T03:47:38.327Z,86.10
2017-09-21T03:50:06.310Z,85.40
2017-09-21T03:52:34.377Z,85.10
2017-09-21T03:55:03.084Z,85.30
2017-09-21T03:57:31.136Z,84.20
2017-09-21T03:59:59.015Z,84.30
2017-09-21T04:02:27.173Z,84.00
2017-09-21T04:04:55.338Z,84.00
2017-09-21T04:07:24.434Z,84.30
2017-09-21T04:09:56.361Z,84.60
2017-09-21T04:12:24.265Z,84.50
2017-09-21T04:14:52.261Z,85.10
2017-09-21T04:17:21.022Z,84.80
2017-09-21T04:19:49.061Z,84.80
2017-09-21T04:22:17.059Z,85.70
2017-09-21T04:24:45.239Z,86.00
2017-09-21T04:27:13.199Z,86.00
2017-09-21T04:29:41.677Z,85.50
2017-09-21T04:32:09.588Z,86.10
2017-09-21T04:34:38.404Z,86.10
2017-09-21T04:37:06.546Z,85.80
2017-09-21T04:39:34.499Z,85.40
2017-09-21T04:42:02.999Z,84.50
2017-09-21T04:44:30.931Z,82.90
2017-09-21T04:46:59.004Z,82.50
2017-09-21T04:49:27.603Z,82.70
2017-09-21T04:51:55.727Z,83.10
2017-09-21T04:54:23.742Z,84.20
2017-09-21T04:56:52.823Z,84.90
2017-09-21T04:59:20.823Z,84.20
2017-09-21T05:01:49.610Z,83.40
2017-09-21T05:04:17.649Z,83.40
2017-09-21T05:06:45.547Z,83.70
2017-09-21T05:09:13.431Z,84.50
2017-09-21T05:11:42.184Z,85.30
2017-09-21T05:14:10.022Z,85.20
2017-09-21T05:16:37.839Z,85.10
2017-09-21T05:19:06.390Z,86.50
2017-09-21T05:21:34.285Z,86.50
2017-09-21T05:24:02.431Z,86.70
2017-09-21T05:26:30.764Z,87.10
2017-09-21T05:28:58.582Z,87.10
2017-09-21T05:31:26.849Z,87.40
2017-09-21T05:33:54.819Z,86.90
2017-09-21T05:36:22.880Z,86.80
2017-09-21T05:38:50.850Z,86.60
2017-09-21T05:41:19.258Z,86.80
2017-09-21T05:43:47.211Z,86.40
2017-09-21T05:46:15.205Z,86.30
2017-09-21T05:48:44.260Z,85.60
2017-09-21T05:51:12.416Z,85.70
2017-09-21T05:53:40.401Z,85.30
2017-09-21T05:56:08.311Z,84.30
2017-09-21T05:58:37.392Z,82.50
2017-09-21T06:01:05.348Z,82.40
2017-09-21T06:03:35.099Z,79.60
2017-09-21T06:06:03.237Z,79.60
2017-09-21T06:08:31.086Z,77.10
2017-09-21T06:10:59.051Z,75.80
2017-09-21T06:13:26.920Z,75.30
2017-09-21T06:15:54.884Z,74.80
2017-09-21T06:18:22.695Z,74.00
2017-09-21T06:20:51.352Z,72.70
2017-09-21T06:23:19.425Z,72.70
2017-09-21T06:25:47.179Z,71.40
2017-09-21T06:28:15.040Z,70.90
2017-09-21T06:30:42.901Z,70.10
2017-09-21T06:33:10.768Z,69.80
2017-09-21T06:35:38.663Z,68.40
2017-09-21T06:38:06.706Z,68.70
2017-09-21T06:40:34.519Z,66.50
2017-09-21T06:43:03.073Z,62.80
2017-09-21T06:45:31.969Z,61.90
2017-09-21T06:47:59.832Z,62.10
2017-09-21T06:50:27.591Z,61.50
2017-09-21T06:52:55.461Z,61.40
2017-09-21T06:55:24.504Z,60.70
2017-09-21T06:57:52.312Z,59.50
2017-09-21T07:00:20.213Z,60.90
2017-09-21T07:02:48.815Z,61.30
2017-09-21T07:05:16.735Z,61.30
2017-09-21T07:07:44.485Z,62.90
2017-09-21T07:10:13.687Z,62.10
2017-09-21T07:12:41.569Z,59.50
2017-09-21T07:15:09.365Z,58.60
2017-09-21T07:17:38.016Z,56.60
2017-09-21T07:20:05.985Z,56.60
2017-09-21T07:22:33.950Z,56.30
2017-09-21T07:25:01.917Z,56.50
2017-09-21T07:27:38.588Z,58.20
2017-09-21T07:30:06.364Z,54.30
2017-09-21T07:32:34.220Z,55.40
2017-09-21T07:35:02.089Z,54.00
2017-09-21T07:37:29.954Z,55.10
2017-09-21T07:39:57.839Z,53.70
2017-09-21T07:42:26.454Z,55.20
2017-09-21T07:44:54.388Z,54.60
2017-09-21T07:47:23.100Z,54.20
2017-09-21T07:49:51.687Z,50.70
2017-09-21T07:52:20.326Z,51.20
2017-09-21T07:54:48.200Z,51.00
2017-09-21T07:57:15.960Z,54.70
2017-09-21T07:59:43.843Z,52.10
2017-09-21T08:02:12.429Z,52.20
2017-09-21T08:04:41.811Z,52.00
2017-09-21T08:07:09.640Z,52.00
2017-09-21T08:09:37.552Z,51.40
2017-09-21T08:12:05.412Z,51.00
2017-09-21T08:14:33.279Z,54.80
2017-09-21T08:17:01.141Z,52.10
2017-09-21T08:19:29.017Z,49.80
2017-09-21T08:21:56.773Z,51.50
2017-09-21T08:24:24.636Z,50.20
2017-09-21T08:26:52.488Z,48.50
2017-09-21T08:29:20.396Z,49.70
2017-09-21T08:31:49.146Z,50.70
2017-09-21T08:34:16.922Z,50.60
2017-09-21T08:36:46.415Z,51.90
2017-09-21T08:39:14.175Z,49.60
2017-09-21T08:41:42.042Z,47.80
2017-09-21T08:44:09.862Z,50.70
2017-09-21T08:46:38.399Z,47.80
2017-09-21T08:49:06.174Z,47.70
2017-09-21T08:51:33.935Z,48.40
2017-09-21T08:54:01.798Z,48.30
2017-09-21T08:56:30.390Z,50.90
2017-09-21T08:58:58.352Z,51.00
2017-09-21T09:01:26.103Z,49.10
2017-09-21T09:03:53.890Z,50.00
2017-09-21T09:06:21.852Z,50.20
2017-09-21T09:08:49.600Z,47.40
2017-09-21T09:11:17.383Z,47.90
2017-09-21T09:13:45.349Z,50.90
2017-09-21T09:16:13.316Z,48.40
2017-09-21T09:18:41.220Z,47.00
2017-09-21T09:21:09.857Z,50.00
2017-09-21T09:23:37.720Z,50.00
2017-09-21T09:26:05.588Z,47.30
2017-09-21T09:28:33.570Z,47.30
2017-09-21T09:31:01.440Z,51.50
2017-09-21T09:33:29.493Z,48.30
2017-09-21T09:35:57.368Z,46.00
2017-09-21T09:38:25.351Z,48.10
2017-09-21T09:40:53.091Z,47.20
2017-09-21T09:43:20.903Z,48.00
2017-09-21T09:45:49.543Z,45.10
2017-09-21T09:48:18.141Z,45.00
2017-09-21T09:50:46.023Z,44.90
2017-09-21T09:53:14.604Z,44.80
2017-09-21T09:55:43.898Z,44.80
2017-09-21T09:58:11.872Z,44.80
2017-09-21T10:00:39.736Z,46.30
2017-09-21T10:03:07.696Z,48.00
2017-09-21T10:05:35.564Z,47.10
2017-09-21T10:08:03.398Z,44.60
2017-09-21T10:10:31.299Z,42.80
2017-09-21T10:12:59.048Z,47.10
2017-09-21T10:15:26.825Z,43.70
2017-09-21T10:17:54.692Z,44.90
2017-09-21T10:20:22.559Z,43.80
2017-09-21T10:22:50.393Z,41.80
2017-09-21T10:25:18.292Z,41.10
2017-09-21T10:27:46.155Z,42.50
2017-09-21T10:30:13.915Z,44.40
2017-09-21T10:32:41.698Z,44.00
2017-09-21T10:35:12.040Z,44.50
2017-09-21T10:37:40.569Z,45.00
2017-09-21T10:40:08.378Z,44.90
2017-09-21T10:42:36.230Z,44.20
2017-09-21T10:45:03.989Z,43.40
2017-09-21T10:47:31.943Z,43.70
2017-09-21T10:49:59.811Z,44.90
2017-09-21T10:52:27.693Z,46.30
2017-09-21T10:54:55.562Z,46.10
2017-09-21T10:57:24.151Z,46.90
2017-09-21T10:59:51.914Z,46.10
2017-09-21T11:02:19.768Z,48.40
2017-09-21T11:04:47.539Z,47.10
2017-09-21T11:07:16.072Z,47.40
2017-09-21T11:09:43.880Z,47.30
2017-09-21T11:12:11.851Z,46.60
2017-09-21T11:14:39.616Z,47.20
2017-09-21T11:17:08.408Z,44.90
2017-09-21T11:19:36.250Z,47.10
2017-09-21T11:22:04.043Z,45.40
2017-09-21T11:24:31.899Z,44.70
2017-09-21T11:26:59.661Z,47.30
2017-09-21T11:29:27.581Z,47.30
2017-09-21T11:31:55.545Z,47.90
2017-09-21T11:34:23.454Z,49.90
2017-09-21T11:36:51.216Z,46.90
2017-09-21T11:39:19.001Z,48.60
2017-09-21T11:41:46.881Z,48.50
2017-09-21T11:44:14.640Z,50.20
2017-09-21T11:46:42.402Z,51.10
2017-09-21T11:49:10.261Z,50.90
2017-09-21T11:51:38.130Z,50.70
2017-09-21T11:54:05.996Z,51.50
2017-09-21T11:56:33.845Z,52.50
2017-09-21T11:59:01.719Z,51.70
2017-09-21T12:01:29.490Z,52.00
2017-09-21T12:03:57.257Z,51.10
2017-09-21T12:06:25.015Z,52.10
2017-09-21T12:08:52.881Z,51.90
2017-09-21T12:11:20.836Z,51.30
2017-09-21T12:13:48.602Z,51.20
2017-09-21T12:16:16.385Z,53.60
2017-09-21T12:18:45.080Z,52.80
2017-09-21T12:21:12.849Z,52.90
2017-09-21T12:23:42.141Z,53.10
2017-09-21T12:26:10.122Z,53.10
2017-09-21T12:28:38.569Z,52.10
2017-09-21T12:31:06.427Z,51.20
2017-09-21T12:33:34.318Z,53.60
2017-09-21T12:36:02.313Z,51.10
2017-09-21T12:38:30.843Z,50.50
2017-09-21T12:40:58.644Z,50.50
2017-09-21T12:43:26.687Z,52.10
2017-09-21T12:45:54.452Z,53.20
2017-09-21T12:48:22.234Z,49.30
2017-09-21T12:50:49.992Z,49.40
2017-09-21T12:53:17.739Z,49.60
2017-09-21T12:55:45.729Z,48.50
2017-09-21T12:58:13.493Z,50.10
2017-09-21T13:00:41.427Z,51.00
2017-09-21T13:03:09.327Z,49.70
2017-09-21T13:05:37.143Z,47.80
2017-09-21T13:08:04.943Z,50.00
2017-09-21T13:10:32.946Z,47.90
2017-09-21T13:13:01.511Z,50.80
2017-09-21T13:15:29.373Z,50.70
2017-09-21T13:17:57.137Z,49.30
2017-09-21T13:20:25.096Z,51.20
2017-09-21T13:22:53.884Z,48.80
2017-09-21T13:25:22.260Z,48.10
2017-09-21T13:27:50.041Z,50.50
2017-09-21T13:30:17.836Z,49.50
2017-09-21T13:32:46.454Z,47.70
2017-09-21T13:35:15.177Z,47.80
2017-09-21T13:37:44.048Z,47.00
2017-09-21T13:40:11.933Z,48.30
2017-09-21T13:42:39.816Z,49.90
2017-09-21T13:45:07.783Z,47.50
2017-09-21T13:47:35.826Z,50.30
2017-09-21T13:50:03.712Z,49.40
2017-09-21T13:52:31.606Z,50.20
2017-09-21T13:55:00.156Z,49.60
2017-09-21T13:57:28.036Z,49.60
2017-09-21T13:59:55.792Z,49.10
2017-09-21T14:02:23.664Z,48.80
2017-09-21T14:04:51.528Z,48.00
2017-09-21T14:07:19.308Z,49.40
2017-09-21T14:09:47.873Z,49.50
2017-09-21T14:12:15.841Z,49.30
2017-09-21T14:14:43.705Z,48.60
2017-09-21T14:17:11.567Z,49.80
2017-09-21T14:19:39.333Z,49.60
2017-09-21T14:22:07.387Z,49.10
2017-09-21T14:24:35.277Z,50.50
2017-09-21T14:27:03.239Z,50.90
2017-09-21T14:29:31.033Z,48.60
2017-09-21T14:31:59.592Z,49.00
2017-09-21T14:34:27.465Z,49.00
2017-09-21T14:36:57.387Z,48.30
2017-09-21T14:39:25.350Z,48.30
2017-09-21T14:41:53.092Z,46.90
2017-09-21T14:44:20.880Z,47.20
2017-09-21T14:46:48.841Z,47.70
2017-09-21T14:49:16.667Z,44.80
2017-09-21T14:51:44.556Z,47.00
2017-09-21T14:54:12.522Z,48.00
2017-09-21T14:56:40.387Z,46.70
2017-09-21T14:59:08.195Z,46.50
2017-09-21T15:01:36.756Z,46.60
2017-09-21T15:04:04.518Z,46.40
2017-09-21T15:06:32.283Z,46.00
2017-09-21T15:09:00.451Z,46.80
2017-09-21T15:11:28.438Z,48.70
2017-09-21T15:13:56.289Z,47.40
2017-09-21T15:16:24.241Z,45.00
2017-09-21T15:18:52.029Z,45.10
2017-09-21T15:21:21.322Z,44.60
2017-09-21T15:23:49.092Z,44.60
2017-09-21T15:26:16.829Z,46.40
2017-09-21T15:28:45.421Z,44.20
2017-09-21T15:31:13.184Z,44.20
2017-09-21T15:33:40.963Z,46.00
2017-09-21T15:36:08.916Z,45.80
2017-09-21T15:38:36.880Z,44.70
2017-09-21T15:41:04.636Z,44.20
2017-09-21T15:43:32.394Z,44.50
2017-09-21T15:46:00.313Z,45.20
2017-09-21T15:48:28.142Z,45.00
2017-09-21T15:50:56.138Z,42.90
2017-09-21T15:53:24.083Z,44.50
2017-09-21T15:55:51.969Z,43.80
2017-09-21T15:58:20.145Z,44.80
2017-09-21T16:00:48.002Z,42.00
2017-09-21T16:03:15.883Z,44.40
2017-09-21T16:05:44.033Z,43.80
2017-09-21T16:08:11.908Z,45.40
2017-09-21T16:10:39.751Z,45.10
2017-09-21T16:13:07.547Z,47.80
2017-09-21T16:15:35.372Z,47.30
2017-09-21T16:18:03.382Z,47.80
2017-09-21T16:20:31.486Z,45.50
2017-09-21T16:23:00.855Z,48.10
2017-09-21T16:25:28.715Z,48.10
2017-09-21T16:27:56.488Z,48.40
2017-09-21T16:30:24.240Z,51.00
2017-09-21T16:32:52.199Z,51.20
2017-09-21T16:35:20.087Z,51.40
2017-09-21T16:37:47.948Z,51.80
2017-09-21T16:40:15.710Z,52.00
2017-09-21T16:42:44.149Z,53.40
2017-09-21T16:45:11.969Z,54.40
2017-09-21T16:47:39.829Z,56.30
2017-09-21T16:50:07.588Z,58.60
2017-09-21T16:52:35.641Z,60.00
2017-09-21T16:55:03.618Z,61.40
2017-09-21T16:57:31.508Z,63.30
2017-09-21T16:59:59.388Z,65.80
2017-09-21T17:02:28.348Z,67.90
2017-09-21T17:04:56.237Z,68.00
2017-09-21T17:07:24.177Z,68.20
2017-09-21T17:09:52.075Z,70.10
2017-09-21T17:12:20.038Z,71.10
2017-09-21T17:14:49.452Z,72.30
2017-09-21T17:17:17.314Z,72.30
2017-09-21T17:19:45.190Z,73.60
2017-09-21T17:22:14.244Z,76.10
2017-09-21T17:24:42.251Z,76.10
2017-09-21T17:27:11.648Z,77.90
2017-09-21T17:29:46.947Z,79.50
2017-09-21T17:32:15.850Z,79.50
2017-09-21T17:34:43.916Z,80.50
2017-09-21T17:37:11.886Z,81.30
2017-09-21T17:39:39.960Z,82.40
2017-09-21T17:42:07.944Z,82.90
2017-09-21T17:44:35.812Z,83.30
2017-09-21T17:47:03.785Z,83.40
2017-09-21T17:49:35.752Z,83.90
2017-09-21T17:52:03.804Z,84.00
2017-09-21T17:54:31.895Z,84.30
2017-09-21T17:57:00.870Z,85.30
2017-09-21T17:59:28.766Z,85.50
2017-09-21T18:01:58.700Z,86.10
2017-09-21T18:04:26.606Z,86.80
2017-09-21T18:06:54.451Z,86.10
2017-09-21T18:09:22.388Z,86.60
2017-09-21T18:11:51.973Z,85.60
2017-09-21T18:14:19.929Z,86.30
2017-09-21T18:16:47.916Z,85.30
2017-09-21T18:19:19.954Z,85.10
2017-09-21T18:21:48.940Z,85.50
2017-09-21T18:24:16.808Z,84.80
2017-09-21T18:26:44.820Z,83.90
2017-09-21T18:29:12.856Z,83.40
2017-09-21T18:31:40.820Z,83.80
2017-09-21T18:34:08.790Z,83.60
2017-09-21T18:36:36.684Z,83.70
2017-09-21T18:39:05.035Z,84.10
2017-09-21T18:41:33.745Z,85.10
2017-09-21T18:44:01.729Z,85.80
2017-09-21T18:46:30.580Z,87.40
2017-09-21T18:48:58.518Z,87.40
2017-09-21T18:51:26.829Z,87.80
2017-09-21T18:53:54.702Z,88.30
2017-09-21T18:56:23.480Z,88.50
2017-09-21T18:58:52.008Z,88.40
2017-09-21T19:01:20.671Z,88.70
2017-09-21T19:03:48.883Z,88.70
2017-09-21T19:06:16.708Z,88.20
2017-09-21T19:08:44.656Z,87.70
2017-09-21T19:11:12.513Z,87.90
2017-09-21T19:13:40.803Z,87.30
2017-09-21T19:16:08.797Z,86.90
2017-09-21T19:18:37.564Z,84.00
2017-09-21T19:21:05.649Z,84.30
2017-09-21T19:23:33.595Z,83.40
2017-09-21T19:26:01.491Z,83.70
2017-09-21T19:28:29.452Z,83.20
2017-09-21T19:30:58.418Z,81.90
2017-09-21T19:33:26.493Z,81.60
2017-09-21T19:35:54.565Z,82.00
2017-09-21T19:38:22.449Z,80.80
2017-09-21T19:40:50.598Z,79.90
2017-09-21T19:43:19.387Z,78.90
2017-09-21T19:45:47.599Z,79.30
2017-09-21T19:48:15.550Z,79.90
2017-09-21T19:50:43.312Z,79.30
2017-09-21T19:53:11.472Z,79.40
2017-09-21T19:55:39.392Z,80.00
2017-09-21T19:58:08.103Z,80.10
2017-09-21T20:00:36.365Z,80.10
2017-09-21T20:03:04.181Z,80.10
2017-09-21T20:05:32.039Z,79.60
2017-09-21T20:07:59.818Z,79.60
2017-09-21T20:10:27.692Z,80.70
2017-09-21T20:12:55.558Z,80.50
2017-09-21T20:15:23.700Z,80.70
2017-09-21T20:17:51.900Z,81.40
2017-09-21T20:20:19.759Z,81.20
2017-09-21T20:22:47.612Z,81.30
2017-09-21T20:25:15.512Z,81.40
2017-09-21T20:27:43.365Z,80.60
2017-09-21T20:30:11.333Z,80.80
2017-09-21T20:32:39.147Z,81.10
2017-09-21T20:35:06.945Z,81.50
2017-09-21T20:37:34.904Z,81.10
2017-09-21T20:40:03.510Z,80.80
2017-09-21T20:42:31.379Z,80.10
2017-09-21T20:44:59.137Z,79.70
2017-09-21T20:47:27.018Z,80.10
2017-09-21T20:49:55.712Z,79.20
2017-09-21T20:52:23.891Z,79.60
2017-09-21T20:54:52.655Z,80.70
2017-09-21T20:57:22.669Z,80.60
2017-09-21T20:59:51.277Z,79.10
2017-09-21T21:02:24.638Z,79.70
2017-09-21T21:04:52.632Z,78.10
2017-09-21T21:07:21.306Z,79.90
2017-09-21T21:09:49.218Z,80.00
2017-09-21T21:12:17.051Z,80.80
2017-09-21T21:14:45.701Z,81.10
2017-09-21T21:17:13.639Z,80.40
2017-09-21T21:19:41.563Z,80.40
2017-09-21T21:22:09.430Z,81.10
2017-09-21T21:24:37.399Z,82.10
2017-09-21T21:27:05.264Z,83.10
2017-09-21T21:29:33.125Z,82.90
2017-09-21T21:32:01.422Z,83.00
2017-09-21T21:34:31.193Z,83.80
2017-09-21T21:36:58.966Z,83.80
2017-09-21T21:39:27.601Z,83.40
2017-09-21T21:41:55.641Z,83.40
2017-09-21T21:44:24.216Z,83.10
2017-09-21T21:46:52.076Z,83.10
2017-09-21T21:49:20.043Z,82.30
2017-09-21T21:51:47.905Z,81.70
2017-09-21T21:54:16.072Z,82.20
2017-09-21T21:56:44.468Z,82.60
2017-09-21T21:59:12.437Z,83.00
2017-09-21T22:01:41.205Z,82.70
2017-09-21T22:04:08.997Z,82.20
2017-09-21T22:06:36.853Z,81.90
2017-09-21T22:09:04.731Z,82.10
2017-09-21T22:11:32.775Z,82.20
2017-09-21T22:14:00.656Z,82.70
2017-09-21T22:16:28.714Z,83.20
2017-09-21T22:18:56.712Z,83.70
2017-09-21T22:21:24.534Z,83.90
2017-09-21T22:23:52.961Z,86.00
2017-09-21T22:26:20.794Z,87.60
2017-09-21T22:28:48.779Z,87.90
2017-09-21T22:31:16.643Z,88.70
2017-09-21T22:33:44.432Z,89.60
2017-09-21T22:36:13.033Z,84.90
2017-09-21T22:38:41.599Z,83.90
2017-09-21T22:41:10.251Z,83.60
2017-09-21T22:43:38.032Z,83.00
2017-09-21T22:46:05.887Z,82.80
2017-09-21T22:48:33.761Z,82.60
2017-09-21T22:51:01.524Z,81.80
2017-09-21T22:53:29.392Z,80.00
2017-09-21T22:55:57.262Z,79.60
2017-09-21T22:58:25.100Z,83.30
2017-09-21T23:00:53.070Z,84.80
2017-09-21T23:03:20.852Z,86.00
2017-09-21T23:05:49.741Z,87.50
2017-09-21T23:08:17.630Z,88.10
2017-09-21T23:10:45.486Z,88.30
2017-09-21T23:13:13.339Z,88.40
2017-09-21T23:15:41.179Z,87.90
2017-09-21T23:18:08.987Z,87.80
2017-09-21T23:20:36.848Z,87.90
2017-09-21T23:23:04.710Z,87.30
2017-09-21T23:25:34.010Z,86.30
2017-09-21T23:28:01.745Z,86.30
2017-09-21T23:30:29.532Z,85.90
2017-09-21T23:32:57.287Z,85.70
2017-09-21T23:35:25.160Z,85.30
2017-09-21T23:37:52.978Z,85.50
2017-09-21T23:40:20.737Z,84.90
2017-09-21T23:42:49.225Z,84.80
2017-09-21T23:45:16.976Z,84.80
2017-09-21T23:47:45.492Z,83.70
2017-09-21T23:50:13.247Z,83.80
2017-09-21T23:52:41.042Z,83.90
2017-09-21T23:55:08.792Z,84.30
2017-09-21T23:57:36.605Z,84.60
